sensor_id;sensor_type;location;lat;lon;timestamp;P1;durP1;ratioP1;P2;durP2;ratioP2
50709;SDS011;37033;49.994;21.992;2022-09-03T00:00:33;3.00;;;2.00;;
50709;SDS011;37033;49.994;21.992;2022-09-03T00:03:26;3.60;;;2.20;;
50709;SDS011;37033;49.994;21.992;2022-09-03T00:06:22;4.50;;;2.10;;
50709;SDS011;37033;49.994;21.992;2022-09-03T00:09:16;3.20;;;2.20;;
50709;SDS011;37033;49.994;21.992;2022-09-03T00:12:12;3.30;;;2.00;;
50709;SDS011;37033;49.994;21.992;2022-09-03T00:15:07;3.40;;;2.10;;
50709;SDS011;37033;49.994;21.992;2022-09-03T00:18:01;6.60;;;2.40;;
50709;SDS011;37033;49.994;21.992;2022-09-03T00:20:55;3.90;;;2.10;;
50709;SDS011;37033;49.994;21.992;2022-09-03T00:23:54;4.20;;;1.90;;
50709;SDS011;37033;49.994;21.992;2022-09-03T00:26:48;2.80;;;1.60;;
50709;SDS011;37033;49.994;21.992;2022-09-03T00:29:44;3.80;;;1.90;;
50709;SDS011;37033;49.994;21.992;2022-09-03T00:32:40;3.20;;;2.00;;
50709;SDS011;37033;49.994;21.992;2022-09-03T00:35:33;2.90;;;1.80;;
50709;SDS011;37033;49.994;21.992;2022-09-03T00:38:29;2.50;;;1.80;;
50709;SDS011;37033;49.994;21.992;2022-09-03T00:41:22;2.90;;;1.60;;
50709;SDS011;37033;49.994;21.992;2022-09-03T00:44:35;3.40;;;1.90;;
50709;SDS011;37033;49.994;21.992;2022-09-03T00:47:37;2.90;;;1.80;;
50709;SDS011;37033;49.994;21.992;2022-09-03T00:50:46;3.80;;;2.00;;
50709;SDS011;37033;49.994;21.992;2022-09-03T00:53:51;4.30;;;2.00;;
50709;SDS011;37033;49.994;21.992;2022-09-03T00:56:49;2.70;;;2.00;;
50709;SDS011;37033;49.994;21.992;2022-09-03T00:59:50;4.50;;;1.90;;
50709;SDS011;37033;49.994;21.992;2022-09-03T01:02:58;3.20;;;1.90;;
50709;SDS011;37033;49.994;21.992;2022-09-03T01:05:59;3.90;;;2.00;;
50709;SDS011;37033;49.994;21.992;2022-09-03T01:09:02;3.10;;;1.60;;
50709;SDS011;37033;49.994;21.992;2022-09-03T01:12:07;3.80;;;2.00;;
50709;SDS011;37033;49.994;21.992;2022-09-03T01:15:08;4.10;;;2.40;;
50709;SDS011;37033;49.994;21.992;2022-09-03T01:18:08;3.50;;;2.10;;
50709;SDS011;37033;49.994;21.992;2022-09-03T01:21:11;4.80;;;2.10;;
50709;SDS011;37033;49.994;21.992;2022-09-03T01:24:19;3.30;;;1.90;;
50709;SDS011;37033;49.994;21.992;2022-09-03T01:27:28;4.30;;;2.10;;
50709;SDS011;37033;49.994;21.992;2022-09-03T01:30:26;3.20;;;2.10;;
50709;SDS011;37033;49.994;21.992;2022-09-03T01:33:20;2.90;;;1.80;;
50709;SDS011;37033;49.994;21.992;2022-09-03T01:36:17;3.00;;;1.70;;
50709;SDS011;37033;49.994;21.992;2022-09-03T01:39:15;2.90;;;2.60;;
50709;SDS011;37033;49.994;21.992;2022-09-03T01:42:15;2.30;;;1.70;;
50709;SDS011;37033;49.994;21.992;2022-09-03T01:48:39;3.30;;;2.30;;
50709;SDS011;37033;49.994;21.992;2022-09-03T01:51:31;4.10;;;2.10;;
50709;SDS011;37033;49.994;21.992;2022-09-03T01:57:42;2.80;;;1.80;;
50709;SDS011;37033;49.994;21.992;2022-09-03T02:00:42;5.40;;;2.40;;
50709;SDS011;37033;49.994;21.992;2022-09-03T02:03:37;5.90;;;2.80;;
50709;SDS011;37033;49.994;21.992;2022-09-03T02:06:31;5.60;;;2.50;;
50709;SDS011;37033;49.994;21.992;2022-09-03T02:09:22;4.00;;;2.30;;
50709;SDS011;37033;49.994;21.992;2022-09-03T02:12:14;5.20;;;2.60;;
50709;SDS011;37033;49.994;21.992;2022-09-03T02:15:09;3.60;;;2.70;;
50709;SDS011;37033;49.994;21.992;2022-09-03T02:20:52;5.00;;;2.90;;
50709;SDS011;37033;49.994;21.992;2022-09-03T02:23:43;4.30;;;2.50;;
50709;SDS011;37033;49.994;21.992;2022-09-03T02:26:34;6.00;;;2.60;;
50709;SDS011;37033;49.994;21.992;2022-09-03T02:29:24;5.30;;;2.60;;
50709;SDS011;37033;49.994;21.992;2022-09-03T02:32:15;5.10;;;2.80;;
50709;SDS011;37033;49.994;21.992;2022-09-03T02:35:06;3.30;;;2.30;;
50709;SDS011;37033;49.994;21.992;2022-09-03T02:38:09;5.40;;;3.30;;
50709;SDS011;37033;49.994;21.992;2022-09-03T02:41:01;8.50;;;3.80;;
50709;SDS011;37033;49.994;21.992;2022-09-03T02:43:52;7.90;;;3.80;;
50709;SDS011;37033;49.994;21.992;2022-09-03T02:46:49;6.60;;;2.90;;
50709;SDS011;37033;49.994;21.992;2022-09-03T02:49:44;3.90;;;3.10;;
50709;SDS011;37033;49.994;21.992;2022-09-03T02:52:35;5.80;;;3.60;;
50709;SDS011;37033;49.994;21.992;2022-09-03T02:55:26;10.70;;;4.80;;
50709;SDS011;37033;49.994;21.992;2022-09-03T02:58:16;9.90;;;5.30;;
50709;SDS011;37033;49.994;21.992;2022-09-03T03:01:06;8.50;;;4.30;;
50709;SDS011;37033;49.994;21.992;2022-09-03T03:03:57;6.70;;;4.10;;
50709;SDS011;37033;49.994;21.992;2022-09-03T03:06:47;5.80;;;3.00;;
50709;SDS011;37033;49.994;21.992;2022-09-03T03:09:38;6.50;;;3.10;;
50709;SDS011;37033;49.994;21.992;2022-09-03T03:12:28;4.30;;;2.60;;
50709;SDS011;37033;49.994;21.992;2022-09-03T03:15:18;8.60;;;2.90;;
50709;SDS011;37033;49.994;21.992;2022-09-03T03:18:09;5.10;;;2.50;;
50709;SDS011;37033;49.994;21.992;2022-09-03T03:21:03;4.60;;;3.00;;
50709;SDS011;37033;49.994;21.992;2022-09-03T03:23:54;7.40;;;3.30;;
50709;SDS011;37033;49.994;21.992;2022-09-03T03:26:45;4.50;;;3.70;;
50709;SDS011;37033;49.994;21.992;2022-09-03T03:29:36;6.80;;;3.00;;
50709;SDS011;37033;49.994;21.992;2022-09-03T03:32:26;7.80;;;3.10;;
50709;SDS011;37033;49.994;21.992;2022-09-03T03:35:17;4.60;;;2.80;;
50709;SDS011;37033;49.994;21.992;2022-09-03T03:38:07;4.90;;;2.90;;
50709;SDS011;37033;49.994;21.992;2022-09-03T03:40:59;4.30;;;2.90;;
50709;SDS011;37033;49.994;21.992;2022-09-03T03:43:53;5.10;;;2.80;;
50709;SDS011;37033;49.994;21.992;2022-09-03T03:46:44;6.30;;;2.90;;
50709;SDS011;37033;49.994;21.992;2022-09-03T03:49:35;4.10;;;2.80;;
50709;SDS011;37033;49.994;21.992;2022-09-03T03:52:25;4.00;;;3.20;;
50709;SDS011;37033;49.994;21.992;2022-09-03T03:55:16;3.10;;;2.50;;
50709;SDS011;37033;49.994;21.992;2022-09-03T03:58:06;3.80;;;2.90;;
50709;SDS011;37033;49.994;21.992;2022-09-03T04:01:02;4.00;;;2.90;;
50709;SDS011;37033;49.994;21.992;2022-09-03T04:03:55;3.80;;;3.20;;
50709;SDS011;37033;49.994;21.992;2022-09-03T04:06:47;4.40;;;3.00;;
50709;SDS011;37033;49.994;21.992;2022-09-03T04:09:38;6.40;;;3.00;;
50709;SDS011;37033;49.994;21.992;2022-09-03T04:12:29;4.30;;;3.00;;
50709;SDS011;37033;49.994;21.992;2022-09-03T04:15:20;5.40;;;3.40;;
50709;SDS011;37033;49.994;21.992;2022-09-03T04:18:10;4.60;;;3.30;;
50709;SDS011;37033;49.994;21.992;2022-09-03T04:21:01;3.50;;;2.90;;
50709;SDS011;37033;49.994;21.992;2022-09-03T04:23:53;7.50;;;3.40;;
50709;SDS011;37033;49.994;21.992;2022-09-03T04:26:44;5.70;;;3.70;;
50709;SDS011;37033;49.994;21.992;2022-09-03T04:29:36;4.40;;;3.20;;
50709;SDS011;37033;49.994;21.992;2022-09-03T04:32:26;5.80;;;3.00;;
50709;SDS011;37033;49.994;21.992;2022-09-03T04:35:34;4.20;;;3.00;;
50709;SDS011;37033;49.994;21.992;2022-09-03T04:38:24;4.60;;;2.80;;
50709;SDS011;37033;49.994;21.992;2022-09-03T04:41:17;9.90;;;4.90;;
50709;SDS011;37033;49.994;21.992;2022-09-03T04:44:10;4.80;;;3.30;;
50709;SDS011;37033;49.994;21.992;2022-09-03T04:47:00;4.30;;;3.20;;
50709;SDS011;37033;49.994;21.992;2022-09-03T04:49:50;4.70;;;3.00;;
50709;SDS011;37033;49.994;21.992;2022-09-03T04:52:41;11.40;;;3.20;;
50709;SDS011;37033;49.994;21.992;2022-09-03T04:55:33;4.50;;;3.20;;
50709;SDS011;37033;49.994;21.992;2022-09-03T04:58:24;5.70;;;3.20;;
50709;SDS011;37033;49.994;21.992;2022-09-03T05:01:15;3.60;;;2.70;;
50709;SDS011;37033;49.994;21.992;2022-09-03T05:04:08;7.20;;;2.80;;
50709;SDS011;37033;49.994;21.992;2022-09-03T05:06:58;4.20;;;3.10;;
50709;SDS011;37033;49.994;21.992;2022-09-03T05:09:49;6.80;;;2.90;;
50709;SDS011;37033;49.994;21.992;2022-09-03T05:12:39;4.40;;;2.70;;
50709;SDS011;37033;49.994;21.992;2022-09-03T05:15:30;4.30;;;3.10;;
50709;SDS011;37033;49.994;21.992;2022-09-03T05:18:21;3.70;;;3.30;;
50709;SDS011;37033;49.994;21.992;2022-09-03T05:21:12;7.70;;;3.20;;
50709;SDS011;37033;49.994;21.992;2022-09-03T05:24:04;5.70;;;3.20;;
50709;SDS011;37033;49.994;21.992;2022-09-03T05:26:54;3.90;;;2.80;;
50709;SDS011;37033;49.994;21.992;2022-09-03T05:29:44;8.50;;;3.20;;
50709;SDS011;37033;49.994;21.992;2022-09-03T05:32:36;6.50;;;2.90;;
50709;SDS011;37033;49.994;21.992;2022-09-03T05:35:26;6.70;;;3.50;;
50709;SDS011;37033;49.994;21.992;2022-09-03T05:38:16;4.80;;;3.00;;
50709;SDS011;37033;49.994;21.992;2022-09-03T05:41:07;4.20;;;3.00;;
50709;SDS011;37033;49.994;21.992;2022-09-03T05:43:58;4.30;;;3.10;;
50709;SDS011;37033;49.994;21.992;2022-09-03T05:46:50;4.00;;;2.50;;
50709;SDS011;37033;49.994;21.992;2022-09-03T05:49:40;5.40;;;2.70;;
50709;SDS011;37033;49.994;21.992;2022-09-03T05:52:31;4.90;;;2.70;;
50709;SDS011;37033;49.994;21.992;2022-09-03T05:55:21;4.20;;;2.70;;
50709;SDS011;37033;49.994;21.992;2022-09-03T05:58:12;5.90;;;2.70;;
50709;SDS011;37033;49.994;21.992;2022-09-03T06:01:09;6.60;;;3.30;;
50709;SDS011;37033;49.994;21.992;2022-09-03T06:04:02;3.00;;;2.60;;
50709;SDS011;37033;49.994;21.992;2022-09-03T06:06:53;4.30;;;3.40;;
50709;SDS011;37033;49.994;21.992;2022-09-03T06:09:45;3.90;;;2.90;;
50709;SDS011;37033;49.994;21.992;2022-09-03T06:12:36;4.70;;;3.10;;
50709;SDS011;37033;49.994;21.992;2022-09-03T06:15:26;3.20;;;2.90;;
50709;SDS011;37033;49.994;21.992;2022-09-03T06:18:16;6.90;;;2.90;;
50709;SDS011;37033;49.994;21.992;2022-09-03T06:21:07;5.00;;;3.40;;
50709;SDS011;37033;49.994;21.992;2022-09-03T06:23:57;4.50;;;2.60;;
50709;SDS011;37033;49.994;21.992;2022-09-03T06:26:48;5.40;;;2.70;;
50709;SDS011;37033;49.994;21.992;2022-09-03T06:29:39;6.20;;;3.60;;
50709;SDS011;37033;49.994;21.992;2022-09-03T06:32:30;4.50;;;2.90;;
50709;SDS011;37033;49.994;21.992;2022-09-03T06:35:21;7.50;;;3.00;;
50709;SDS011;37033;49.994;21.992;2022-09-03T06:38:11;3.10;;;2.80;;
50709;SDS011;37033;49.994;21.992;2022-09-03T06:41:02;3.40;;;3.00;;
50709;SDS011;37033;49.994;21.992;2022-09-03T06:43:54;3.10;;;2.60;;
50709;SDS011;37033;49.994;21.992;2022-09-03T06:46:49;2.90;;;2.60;;
50709;SDS011;37033;49.994;21.992;2022-09-03T06:49:40;4.30;;;2.80;;
50709;SDS011;37033;49.994;21.992;2022-09-03T06:52:30;4.10;;;3.20;;
50709;SDS011;37033;49.994;21.992;2022-09-03T06:55:21;5.50;;;2.80;;
50709;SDS011;37033;49.994;21.992;2022-09-03T06:58:11;4.20;;;2.50;;
50709;SDS011;37033;49.994;21.992;2022-09-03T07:01:04;3.50;;;2.30;;
50709;SDS011;37033;49.994;21.992;2022-09-03T07:03:56;2.60;;;2.30;;
50709;SDS011;37033;49.994;21.992;2022-09-03T07:06:48;5.40;;;2.80;;
50709;SDS011;37033;49.994;21.992;2022-09-03T07:09:39;2.80;;;2.00;;
50709;SDS011;37033;49.994;21.992;2022-09-03T07:12:29;3.60;;;2.40;;
50709;SDS011;37033;49.994;21.992;2022-09-03T07:15:21;3.00;;;2.60;;
50709;SDS011;37033;49.994;21.992;2022-09-03T07:18:12;4.00;;;2.60;;
50709;SDS011;37033;49.994;21.992;2022-09-03T07:21:04;2.50;;;2.30;;
50709;SDS011;37033;49.994;21.992;2022-09-03T07:23:56;2.90;;;2.20;;
50709;SDS011;37033;49.994;21.992;2022-09-03T07:26:47;9.20;;;2.60;;
50709;SDS011;37033;49.994;21.992;2022-09-03T07:29:37;5.20;;;2.80;;
50709;SDS011;37033;49.994;21.992;2022-09-03T07:32:28;4.00;;;2.60;;
50709;SDS011;37033;49.994;21.992;2022-09-03T07:35:20;4.40;;;2.40;;
50709;SDS011;37033;49.994;21.992;2022-09-03T07:38:15;3.10;;;2.40;;
50709;SDS011;37033;49.994;21.992;2022-09-03T07:41:07;3.50;;;2.50;;
50709;SDS011;37033;49.994;21.992;2022-09-03T07:43:59;4.80;;;2.80;;
50709;SDS011;37033;49.994;21.992;2022-09-03T07:46:51;4.10;;;2.50;;
50709;SDS011;37033;49.994;21.992;2022-09-03T07:49:42;4.30;;;3.00;;
50709;SDS011;37033;49.994;21.992;2022-09-03T07:52:32;4.00;;;2.50;;
50709;SDS011;37033;49.994;21.992;2022-09-03T07:55:23;6.00;;;3.00;;
50709;SDS011;37033;49.994;21.992;2022-09-03T07:58:13;9.90;;;4.30;;
50709;SDS011;37033;49.994;21.992;2022-09-03T08:01:05;9.00;;;5.30;;
50709;SDS011;37033;49.994;21.992;2022-09-03T08:03:56;5.80;;;4.70;;
50709;SDS011;37033;49.994;21.992;2022-09-03T08:06:47;15.50;;;9.90;;
50709;SDS011;37033;49.994;21.992;2022-09-03T08:09:41;7.40;;;4.10;;
50709;SDS011;37033;49.994;21.992;2022-09-03T08:12:31;6.70;;;4.90;;
50709;SDS011;37033;49.994;21.992;2022-09-03T08:15:21;7.50;;;3.80;;
50709;SDS011;37033;49.994;21.992;2022-09-03T08:18:12;6.60;;;3.40;;
50709;SDS011;37033;49.994;21.992;2022-09-03T08:21:03;3.20;;;2.90;;
50709;SDS011;37033;49.994;21.992;2022-09-03T08:23:55;6.40;;;3.00;;
50709;SDS011;37033;49.994;21.992;2022-09-03T08:26:48;4.40;;;3.10;;
50709;SDS011;37033;49.994;21.992;2022-09-03T08:29:39;4.20;;;2.70;;
50709;SDS011;37033;49.994;21.992;2022-09-03T08:32:32;3.80;;;3.00;;
50709;SDS011;37033;49.994;21.992;2022-09-03T08:35:23;5.60;;;2.90;;
50709;SDS011;37033;49.994;21.992;2022-09-03T08:38:16;3.90;;;2.70;;
50709;SDS011;37033;49.994;21.992;2022-09-03T08:41:07;3.20;;;2.80;;
50709;SDS011;37033;49.994;21.992;2022-09-03T08:46:58;5.50;;;2.60;;
50709;SDS011;37033;49.994;21.992;2022-09-03T08:49:53;3.90;;;2.40;;
50709;SDS011;37033;49.994;21.992;2022-09-03T08:52:48;5.70;;;2.00;;
50709;SDS011;37033;49.994;21.992;2022-09-03T08:55:42;2.60;;;2.00;;
50709;SDS011;37033;49.994;21.992;2022-09-03T08:58:37;3.70;;;1.60;;
50709;SDS011;37033;49.994;21.992;2022-09-03T09:01:32;1.60;;;1.40;;
50709;SDS011;37033;49.994;21.992;2022-09-03T09:04:34;2.10;;;1.70;;
50709;SDS011;37033;49.994;21.992;2022-09-03T09:07:36;2.30;;;1.90;;
50709;SDS011;37033;49.994;21.992;2022-09-03T09:10:32;3.60;;;1.80;;
50709;SDS011;37033;49.994;21.992;2022-09-03T09:13:32;2.50;;;1.70;;
50709;SDS011;37033;49.994;21.992;2022-09-03T09:16:32;2.10;;;1.40;;
50709;SDS011;37033;49.994;21.992;2022-09-03T09:19:30;2.50;;;1.90;;
50709;SDS011;37033;49.994;21.992;2022-09-03T09:22:33;5.10;;;2.00;;
50709;SDS011;37033;49.994;21.992;2022-09-03T09:25:25;2.90;;;1.90;;
50709;SDS011;37033;49.994;21.992;2022-09-03T09:28:18;2.40;;;1.80;;
50709;SDS011;37033;49.994;21.992;2022-09-03T09:31:11;3.30;;;1.70;;
50709;SDS011;37033;49.994;21.992;2022-09-03T09:34:05;3.60;;;1.50;;
50709;SDS011;37033;49.994;21.992;2022-09-03T09:36:56;2.00;;;1.60;;
50709;SDS011;37033;49.994;21.992;2022-09-03T09:39:57;4.30;;;1.60;;
50709;SDS011;37033;49.994;21.992;2022-09-03T09:42:48;2.40;;;1.60;;
50709;SDS011;37033;49.994;21.992;2022-09-03T09:45:45;1.40;;;1.10;;
50709;SDS011;37033;49.994;21.992;2022-09-03T09:48:38;3.80;;;1.40;;
50709;SDS011;37033;49.994;21.992;2022-09-03T09:51:36;1.90;;;1.70;;
50709;SDS011;37033;49.994;21.992;2022-09-03T09:54:26;4.30;;;1.70;;
50709;SDS011;37033;49.994;21.992;2022-09-03T09:57:17;3.50;;;1.60;;
50709;SDS011;37033;49.994;21.992;2022-09-03T10:00:13;2.60;;;1.30;;
50709;SDS011;37033;49.994;21.992;2022-09-03T10:03:08;5.30;;;1.20;;
50709;SDS011;37033;49.994;21.992;2022-09-03T10:06:04;2.40;;;1.70;;
50709;SDS011;37033;49.994;21.992;2022-09-03T10:09:14;2.20;;;1.60;;
50709;SDS011;37033;49.994;21.992;2022-09-03T10:12:08;2.50;;;1.20;;
50709;SDS011;37033;49.994;21.992;2022-09-03T10:15:14;3.10;;;1.50;;
50709;SDS011;37033;49.994;21.992;2022-09-03T10:18:13;2.10;;;1.40;;
50709;SDS011;37033;49.994;21.992;2022-09-03T10:21:14;1.10;;;1.00;;
50709;SDS011;37033;49.994;21.992;2022-09-03T10:24:18;2.00;;;1.30;;
50709;SDS011;37033;49.994;21.992;2022-09-03T10:27:32;4.30;;;2.00;;
50709;SDS011;37033;49.994;21.992;2022-09-03T10:30:23;5.60;;;1.60;;
50709;SDS011;37033;49.994;21.992;2022-09-03T10:33:15;3.00;;;1.30;;
50709;SDS011;37033;49.994;21.992;2022-09-03T10:36:13;5.70;;;1.40;;
50709;SDS011;37033;49.994;21.992;2022-09-03T10:39:12;2.30;;;1.60;;
50709;SDS011;37033;49.994;21.992;2022-09-03T10:42:11;4.70;;;1.80;;
50709;SDS011;37033;49.994;21.992;2022-09-03T10:45:17;2.80;;;1.90;;
50709;SDS011;37033;49.994;21.992;2022-09-03T10:48:19;4.40;;;1.80;;
50709;SDS011;37033;49.994;21.992;2022-09-03T10:51:22;2.70;;;2.50;;
50709;SDS011;37033;49.994;21.992;2022-09-03T10:54:26;6.20;;;2.00;;
50709;SDS011;37033;49.994;21.992;2022-09-03T10:57:29;2.80;;;2.10;;
50709;SDS011;37033;49.994;21.992;2022-09-03T11:00:28;1.90;;;1.70;;
50709;SDS011;37033;49.994;21.992;2022-09-03T11:06:37;4.30;;;2.00;;
50709;SDS011;37033;49.994;21.992;2022-09-03T11:09:34;4.10;;;2.00;;
50709;SDS011;37033;49.994;21.992;2022-09-03T11:12:30;4.00;;;2.00;;
50709;SDS011;37033;49.994;21.992;2022-09-03T11:15:24;6.00;;;2.20;;
50709;SDS011;37033;49.994;21.992;2022-09-03T11:18:19;2.60;;;2.30;;
50709;SDS011;37033;49.994;21.992;2022-09-03T11:21:13;6.40;;;2.00;;
50709;SDS011;37033;49.994;21.992;2022-09-03T11:24:10;2.70;;;1.90;;
50709;SDS011;37033;49.994;21.992;2022-09-03T11:27:04;2.30;;;1.80;;
50709;SDS011;37033;49.994;21.992;2022-09-03T11:30:07;4.00;;;2.10;;
50709;SDS011;37033;49.994;21.992;2022-09-03T11:33:04;3.60;;;2.40;;
50709;SDS011;37033;49.994;21.992;2022-09-03T11:35:57;6.40;;;1.90;;
50709;SDS011;37033;49.994;21.992;2022-09-03T11:38:49;8.40;;;2.40;;
50709;SDS011;37033;49.994;21.992;2022-09-03T11:41:39;5.00;;;2.30;;
50709;SDS011;37033;49.994;21.992;2022-09-03T11:44:35;3.80;;;2.30;;
50709;SDS011;37033;49.994;21.992;2022-09-03T11:47:37;3.60;;;2.90;;
50709;SDS011;37033;49.994;21.992;2022-09-03T11:50:29;15.90;;;8.40;;
50709;SDS011;37033;49.994;21.992;2022-09-03T11:53:24;11.80;;;6.80;;
50709;SDS011;37033;49.994;21.992;2022-09-03T11:56:20;7.50;;;4.60;;
50709;SDS011;37033;49.994;21.992;2022-09-03T11:59:18;3.20;;;2.80;;
50709;SDS011;37033;49.994;21.992;2022-09-03T12:02:15;2.40;;;1.60;;
50709;SDS011;37033;49.994;21.992;2022-09-03T12:05:15;2.80;;;1.40;;
50709;SDS011;37033;49.994;21.992;2022-09-03T12:08:15;2.50;;;1.60;;
50709;SDS011;37033;49.994;21.992;2022-09-03T12:11:25;2.00;;;1.50;;
50709;SDS011;37033;49.994;21.992;2022-09-03T12:14:25;21.00;;;11.20;;
50709;SDS011;37033;49.994;21.992;2022-09-03T12:17:27;9.10;;;4.00;;
50709;SDS011;37033;49.994;21.992;2022-09-03T12:20:26;5.30;;;2.10;;
50709;SDS011;37033;49.994;21.992;2022-09-03T12:23:26;3.10;;;1.60;;
50709;SDS011;37033;49.994;21.992;2022-09-03T12:26:19;3.50;;;1.50;;
50709;SDS011;37033;49.994;21.992;2022-09-03T12:29:23;2.60;;;1.80;;
50709;SDS011;37033;49.994;21.992;2022-09-03T12:32:15;2.50;;;1.80;;
50709;SDS011;37033;49.994;21.992;2022-09-03T12:35:13;3.20;;;1.80;;
50709;SDS011;37033;49.994;21.992;2022-09-03T12:38:05;5.70;;;1.70;;
50709;SDS011;37033;49.994;21.992;2022-09-03T12:40:55;2.90;;;1.60;;
50709;SDS011;37033;49.994;21.992;2022-09-03T12:43:49;2.10;;;1.70;;
50709;SDS011;37033;49.994;21.992;2022-09-03T12:46:41;4.70;;;1.70;;
50709;SDS011;37033;49.994;21.992;2022-09-03T12:49:38;3.70;;;1.60;;
50709;SDS011;37033;49.994;21.992;2022-09-03T12:52:31;4.00;;;1.40;;
50709;SDS011;37033;49.994;21.992;2022-09-03T12:55:27;2.90;;;1.60;;
50709;SDS011;37033;49.994;21.992;2022-09-03T12:58:21;4.30;;;1.70;;
50709;SDS011;37033;49.994;21.992;2022-09-03T13:01:15;2.00;;;1.60;;
50709;SDS011;37033;49.994;21.992;2022-09-03T13:04:11;6.10;;;1.50;;
50709;SDS011;37033;49.994;21.992;2022-09-03T13:07:07;3.50;;;1.50;;
50709;SDS011;37033;49.994;21.992;2022-09-03T13:10:04;2.50;;;1.70;;
50709;SDS011;37033;49.994;21.992;2022-09-03T13:13:06;4.10;;;1.50;;
50709;SDS011;37033;49.994;21.992;2022-09-03T13:16:10;2.90;;;1.80;;
50709;SDS011;37033;49.994;21.992;2022-09-03T13:19:20;1.80;;;1.50;;
50709;SDS011;37033;49.994;21.992;2022-09-03T13:22:20;3.60;;;2.00;;
50709;SDS011;37033;49.994;21.992;2022-09-03T13:25:22;5.70;;;1.70;;
50709;SDS011;37033;49.994;21.992;2022-09-03T13:28:19;2.50;;;1.50;;
50709;SDS011;37033;49.994;21.992;2022-09-03T13:31:27;2.90;;;1.80;;
50709;SDS011;37033;49.994;21.992;2022-09-03T13:34:21;2.40;;;1.40;;
50709;SDS011;37033;49.994;21.992;2022-09-03T13:37:21;1.20;;;1.10;;
50709;SDS011;37033;49.994;21.992;2022-09-03T13:40:17;2.50;;;1.60;;
50709;SDS011;37033;49.994;21.992;2022-09-03T13:43:19;1.80;;;1.40;;
50709;SDS011;37033;49.994;21.992;2022-09-03T13:46:16;3.70;;;1.60;;
50709;SDS011;37033;49.994;21.992;2022-09-03T13:52:25;3.90;;;2.90;;
50709;SDS011;37033;49.994;21.992;2022-09-03T13:55:21;4.50;;;3.70;;
50709;SDS011;37033;49.994;21.992;2022-09-03T13:58:19;9.00;;;5.30;;
50709;SDS011;37033;49.994;21.992;2022-09-03T14:01:16;14.20;;;7.30;;
50709;SDS011;37033;49.994;21.992;2022-09-03T14:04:14;20.70;;;9.60;;
50709;SDS011;37033;49.994;21.992;2022-09-03T14:07:14;10.80;;;5.50;;
50709;SDS011;37033;49.994;21.992;2022-09-03T14:10:20;11.30;;;6.60;;
50709;SDS011;37033;49.994;21.992;2022-09-03T14:16:09;6.60;;;2.50;;
50709;SDS011;37033;49.994;21.992;2022-09-03T14:19:09;3.80;;;2.30;;
50709;SDS011;37033;49.994;21.992;2022-09-03T14:22:06;3.10;;;2.30;;
50709;SDS011;37033;49.994;21.992;2022-09-03T14:25:02;4.50;;;2.40;;
50709;SDS011;37033;49.994;21.992;2022-09-03T14:31:00;3.20;;;2.60;;
50709;SDS011;37033;49.994;21.992;2022-09-03T14:34:02;3.30;;;2.10;;
50709;SDS011;37033;49.994;21.992;2022-09-03T14:37:01;3.80;;;2.10;;
50709;SDS011;37033;49.994;21.992;2022-09-03T14:40:09;3.40;;;2.20;;
50709;SDS011;37033;49.994;21.992;2022-09-03T14:43:06;11.10;;;5.30;;
50709;SDS011;37033;49.994;21.992;2022-09-03T14:46:17;7.80;;;5.30;;
50709;SDS011;37033;49.994;21.992;2022-09-03T14:49:30;12.70;;;6.00;;
50709;SDS011;37033;49.994;21.992;2022-09-03T14:52:47;8.20;;;5.10;;
50709;SDS011;37033;49.994;21.992;2022-09-03T14:56:00;4.70;;;3.80;;
50709;SDS011;37033;49.994;21.992;2022-09-03T14:59:07;5.60;;;3.30;;
50709;SDS011;37033;49.994;21.992;2022-09-03T15:02:24;5.30;;;3.50;;
50709;SDS011;37033;49.994;21.992;2022-09-03T15:08:57;7.20;;;4.10;;
50709;SDS011;37033;49.994;21.992;2022-09-03T15:12:05;3.20;;;2.80;;
50709;SDS011;37033;49.994;21.992;2022-09-03T15:15:07;4.30;;;3.20;;
50709;SDS011;37033;49.994;21.992;2022-09-03T15:18:04;4.70;;;2.50;;
50709;SDS011;37033;49.994;21.992;2022-09-03T15:21:05;2.30;;;2.00;;
50709;SDS011;37033;49.994;21.992;2022-09-03T15:24:08;3.10;;;2.10;;
50709;SDS011;37033;49.994;21.992;2022-09-03T15:27:11;5.40;;;2.60;;
50709;SDS011;37033;49.994;21.992;2022-09-03T15:30:11;6.90;;;2.30;;
50709;SDS011;37033;49.994;21.992;2022-09-03T15:33:09;6.00;;;2.90;;
50709;SDS011;37033;49.994;21.992;2022-09-03T15:36:11;3.60;;;2.50;;
50709;SDS011;37033;49.994;21.992;2022-09-03T15:39:06;3.10;;;2.30;;
50709;SDS011;37033;49.994;21.992;2022-09-03T15:42:03;4.90;;;2.50;;
50709;SDS011;37033;49.994;21.992;2022-09-03T15:45:03;3.30;;;2.40;;
50709;SDS011;37033;49.994;21.992;2022-09-03T15:48:06;3.40;;;2.40;;
50709;SDS011;37033;49.994;21.992;2022-09-03T15:51:09;7.00;;;2.30;;
50709;SDS011;37033;49.994;21.992;2022-09-03T15:54:09;3.30;;;2.00;;
50709;SDS011;37033;49.994;21.992;2022-09-03T15:57:06;4.10;;;1.80;;
50709;SDS011;37033;49.994;21.992;2022-09-03T16:00:01;3.20;;;1.50;;
50709;SDS011;37033;49.994;21.992;2022-09-03T16:02:57;3.90;;;1.80;;
50709;SDS011;37033;49.994;21.992;2022-09-03T16:05:59;2.60;;;1.80;;
50709;SDS011;37033;49.994;21.992;2022-09-03T16:08:54;1.70;;;1.60;;
50709;SDS011;37033;49.994;21.992;2022-09-03T16:11:51;6.40;;;2.70;;
50709;SDS011;37033;49.994;21.992;2022-09-03T16:14:50;4.50;;;1.90;;
50709;SDS011;37033;49.994;21.992;2022-09-03T16:17:51;3.60;;;2.20;;
50709;SDS011;37033;49.994;21.992;2022-09-03T16:20:48;3.80;;;2.10;;
50709;SDS011;37033;49.994;21.992;2022-09-03T16:23:48;6.70;;;1.60;;
50709;SDS011;37033;49.994;21.992;2022-09-03T16:26:48;5.10;;;1.90;;
50709;SDS011;37033;49.994;21.992;2022-09-03T16:29:44;4.80;;;2.10;;
50709;SDS011;37033;49.994;21.992;2022-09-03T16:32:52;2.90;;;1.90;;
50709;SDS011;37033;49.994;21.992;2022-09-03T16:35:54;4.80;;;2.10;;
50709;SDS011;37033;49.994;21.992;2022-09-03T16:38:56;2.70;;;2.20;;
50709;SDS011;37033;49.994;21.992;2022-09-03T16:41:52;4.90;;;2.80;;
50709;SDS011;37033;49.994;21.992;2022-09-03T16:44:53;3.50;;;2.60;;
50709;SDS011;37033;49.994;21.992;2022-09-03T16:47:55;3.30;;;2.60;;
50709;SDS011;37033;49.994;21.992;2022-09-03T16:53:58;3.90;;;3.00;;
50709;SDS011;37033;49.994;21.992;2022-09-03T16:57:04;4.10;;;2.70;;
50709;SDS011;37033;49.994;21.992;2022-09-03T17:00:08;7.20;;;2.80;;
50709;SDS011;37033;49.994;21.992;2022-09-03T17:03:06;5.50;;;2.60;;
50709;SDS011;37033;49.994;21.992;2022-09-03T17:06:28;5.60;;;3.30;;
50709;SDS011;37033;49.994;21.992;2022-09-03T17:09:35;5.60;;;3.70;;
50709;SDS011;37033;49.994;21.992;2022-09-03T17:12:35;6.20;;;3.90;;
50709;SDS011;37033;49.994;21.992;2022-09-03T17:15:33;7.90;;;4.10;;
50709;SDS011;37033;49.994;21.992;2022-09-03T17:18:34;6.00;;;4.10;;
50709;SDS011;37033;49.994;21.992;2022-09-03T17:21:38;6.80;;;3.90;;
50709;SDS011;37033;49.994;21.992;2022-09-03T17:24:38;9.40;;;4.70;;
50709;SDS011;37033;49.994;21.992;2022-09-03T17:27:37;8.30;;;5.20;;
50709;SDS011;37033;49.994;21.992;2022-09-03T17:30:42;6.90;;;5.00;;
50709;SDS011;37033;49.994;21.992;2022-09-03T17:33:57;9.60;;;4.60;;
50709;SDS011;37033;49.994;21.992;2022-09-03T17:36:57;5.80;;;4.00;;
50709;SDS011;37033;49.994;21.992;2022-09-03T17:39:56;4.50;;;4.00;;
50709;SDS011;37033;49.994;21.992;2022-09-03T17:42:55;4.30;;;3.70;;
50709;SDS011;37033;49.994;21.992;2022-09-03T17:45:53;5.80;;;4.00;;
50709;SDS011;37033;49.994;21.992;2022-09-03T17:48:55;5.30;;;4.00;;
50709;SDS011;37033;49.994;21.992;2022-09-03T17:51:48;5.80;;;4.10;;
50709;SDS011;37033;49.994;21.992;2022-09-03T17:54:46;5.50;;;4.50;;